createdAt,value
2018-03-08T00:00:03.896Z,4.25
2018-03-08T00:01:03.899Z,4.26
2018-03-08T00:02:03.859Z,4.24
2018-03-08T00:03:03.855Z,4.24
2018-03-08T00:04:03.789Z,4.21
2018-03-08T00:05:03.834Z,4.21
2018-03-08T00:06:03.832Z,4.24
2018-03-08T00:07:03.903Z,4.21
2018-03-08T00:08:03.831Z,4.21
2018-03-08T00:09:03.839Z,4.22
2018-03-08T00:10:03.908Z,4.22
2018-03-08T00:11:03.832Z,4.19
2018-03-08T00:12:03.844Z,4.18
2018-03-08T00:13:03.906Z,4.18
2018-03-08T00:14:03.900Z,4.19
2018-03-08T00:15:03.825Z,4.24
2018-03-08T00:16:03.823Z,4.29
2018-03-08T00:17:03.904Z,4.30
2018-03-08T00:18:03.851Z,4.32
2018-03-08T00:19:03.851Z,4.30
2018-03-08T00:20:03.993Z,4.30
2018-03-08T00:21:03.833Z,4.28
2018-03-08T00:22:03.905Z,4.30
2018-03-08T00:23:03.777Z,4.32
2018-03-08T00:24:03.834Z,4.37
2018-03-08T00:25:03.932Z,4.39
2018-03-08T00:26:03.911Z,4.41
2018-03-08T00:27:03.914Z,4.47
2018-03-08T00:28:04.048Z,4.48
2018-03-08T00:29:03.893Z,4.48
2018-03-08T00:30:03.949Z,4.47
2018-03-08T00:31:03.884Z,4.47
2018-03-08T00:32:03.890Z,4.44
2018-03-08T00:33:03.881Z,4.41
2018-03-08T00:34:03.916Z,4.40
2018-03-08T00:35:03.921Z,4.37
2018-03-08T00:36:03.879Z,4.35
2018-03-08T00:37:03.881Z,4.33
2018-03-08T00:38:03.922Z,4.32
2018-03-08T00:39:03.947Z,4.30
2018-03-08T00:40:03.947Z,4.28
2018-03-08T00:41:03.842Z,4.25
2018-03-08T00:42:03.824Z,4.25
2018-03-08T00:43:03.842Z,4.24
2018-03-08T00:44:03.891Z,4.22
2018-03-08T00:45:03.843Z,4.21
2018-03-08T00:46:03.940Z,4.19
2018-03-08T00:47:03.831Z,4.17
2018-03-08T00:48:03.949Z,4.18
2018-03-08T00:49:03.971Z,4.19
2018-03-08T00:50:03.847Z,4.19
2018-03-08T00:51:03.853Z,4.21
2018-03-08T00:52:03.945Z,4.18
2018-03-08T00:53:03.965Z,4.17
2018-03-08T00:54:03.892Z,4.17
2018-03-08T00:55:03.935Z,4.14
2018-03-08T00:56:03.854Z,4.12
2018-03-08T00:57:03.831Z,4.12
2018-03-08T00:58:03.935Z,4.12
2018-03-08T00:59:03.940Z,4.10
2018-03-08T01:00:03.930Z,4.08
2018-03-08T01:01:03.931Z,4.11
2018-03-08T01:02:04.012Z,4.11
2018-03-08T01:03:03.897Z,4.11
2018-03-08T01:04:03.972Z,4.10
2018-03-08T01:05:03.957Z,4.07
2018-03-08T01:06:03.936Z,4.06
2018-03-08T01:07:04.012Z,4.06
2018-03-08T01:08:03.861Z,4.04
2018-03-08T01:09:03.994Z,4.03
2018-03-08T01:10:03.916Z,4.03
2018-03-08T01:11:03.960Z,4.00
2018-03-08T01:12:03.939Z,3.99
2018-03-08T01:13:03.946Z,3.99
2018-03-08T01:14:03.941Z,3.97
2018-03-08T01:15:03.880Z,3.97
2018-03-08T01:16:03.907Z,3.96
2018-03-08T01:17:03.882Z,3.96
2018-03-08T01:18:03.944Z,3.95
2018-03-08T01:19:03.982Z,3.95
2018-03-08T01:20:03.923Z,3.95
2018-03-08T01:21:03.978Z,3.93
2018-03-08T01:22:03.855Z,3.92
2018-03-08T01:23:03.973Z,3.90
2018-03-08T01:24:03.857Z,3.90
2018-03-08T01:25:03.889Z,3.87
2018-03-08T01:26:03.950Z,3.84
2018-03-08T01:27:03.946Z,3.84
2018-03-08T01:28:03.888Z,3.81
2018-03-08T01:29:03.923Z,3.81
2018-03-08T01:30:03.924Z,3.81
2018-03-08T01:31:03.974Z,3.80
2018-03-08T01:32:12.446Z,3.81
2018-03-08T01:33:03.979Z,3.81
2018-03-08T01:34:03.994Z,3.78
2018-03-08T01:35:03.927Z,3.78
2018-03-08T01:36:03.983Z,3.83
2018-03-08T01:37:03.874Z,3.80
2018-03-08T01:38:03.924Z,3.80
2018-03-08T01:39:03.876Z,3.83
2018-03-08T01:40:03.919Z,3.81
2018-03-08T01:41:03.942Z,3.81
2018-03-08T01:42:03.878Z,3.81
2018-03-08T01:43:03.944Z,3.81
2018-03-08T01:44:03.936Z,3.83
2018-03-08T01:45:03.901Z,3.84
2018-03-08T01:46:03.936Z,3.87
2018-03-08T01:47:04.019Z,3.89
2018-03-08T01:48:04.001Z,3.90
2018-03-08T01:49:03.960Z,3.95
2018-03-08T01:50:03.974Z,4.00
2018-03-08T01:51:03.887Z,4.07
2018-03-08T01:52:03.946Z,4.12
2018-03-08T01:53:03.885Z,4.15
2018-03-08T01:54:03.881Z,4.21
2018-03-08T01:55:03.958Z,4.28
2018-03-08T01:56:03.881Z,4.30
2018-03-08T01:57:03.874Z,4.35
2018-03-08T01:58:03.917Z,4.37
2018-03-08T01:59:03.866Z,4.40
2018-03-08T02:00:03.964Z,4.46
2018-03-08T02:01:03.874Z,4.50
2018-03-08T02:02:03.873Z,4.54
2018-03-08T02:03:03.912Z,4.57
2018-03-08T02:04:03.947Z,4.57
2018-03-08T02:05:03.961Z,4.60
2018-03-08T02:06:03.863Z,4.60
2018-03-08T02:07:03.926Z,4.59
2018-03-08T02:08:03.951Z,4.60
2018-03-08T02:09:03.836Z,4.62
2018-03-08T02:10:03.966Z,4.63
2018-03-08T02:11:03.914Z,4.63
2018-03-08T02:12:03.964Z,4.63
2018-03-08T02:13:03.955Z,4.64
2018-03-08T02:14:03.873Z,4.63
2018-03-08T02:15:03.979Z,4.63
2018-03-08T02:16:03.912Z,4.62
2018-03-08T02:17:03.983Z,4.60
2018-03-08T02:18:03.913Z,4.59
2018-03-08T02:19:03.984Z,4.57
2018-03-08T02:20:03.948Z,4.55
2018-03-08T02:21:03.988Z,4.54
2018-03-08T02:22:03.983Z,4.54
2018-03-08T02:23:04.016Z,4.54
2018-03-08T02:24:03.919Z,4.55
2018-03-08T02:25:03.902Z,4.55
2018-03-08T02:26:03.887Z,4.57
2018-03-08T02:27:03.943Z,4.57
2018-03-08T02:28:03.883Z,4.57
2018-03-08T02:29:03.989Z,4.55
2018-03-08T02:30:04.021Z,4.54
2018-03-08T02:31:03.962Z,4.55
2018-03-08T02:32:03.908Z,4.55
2018-03-08T02:33:04.022Z,4.52
2018-03-08T02:34:03.953Z,4.54
2018-03-08T02:35:04.018Z,4.55
2018-03-08T02:36:03.997Z,4.55
2018-03-08T02:37:04.006Z,4.59
2018-03-08T02:38:03.930Z,4.59
2018-03-08T02:39:03.997Z,4.59
2018-03-08T02:40:04.006Z,4.54
2018-03-08T02:41:04.001Z,4.55
2018-03-08T02:42:03.959Z,4.54
2018-03-08T02:43:03.999Z,4.54
2018-03-08T02:44:03.896Z,4.52
2018-03-08T02:45:04.000Z,4.50
2018-03-08T02:46:04.001Z,4.47
2018-03-08T02:47:04.007Z,4.46
2018-03-08T02:48:04.003Z,4.44
2018-03-08T02:49:03.931Z,4.44
2018-03-08T02:50:04.005Z,4.43
2018-03-08T02:51:04.014Z,4.43
2018-03-08T02:52:04.003Z,4.43
2018-03-08T02:53:04.007Z,4.44
2018-03-08T02:54:03.933Z,4.47
2018-03-08T02:55:04.011Z,4.47
2018-03-08T02:56:04.012Z,4.47
2018-03-08T02:57:04.017Z,4.46
2018-03-08T02:58:04.013Z,4.44
2018-03-08T02:59:04.009Z,4.41
2018-03-08T03:00:03.905Z,4.44
2018-03-08T03:01:04.010Z,4.41
2018-03-08T03:02:03.941Z,4.43
2018-03-08T03:03:03.938Z,4.46
2018-03-08T03:04:03.947Z,4.48
2018-03-08T03:05:03.942Z,4.50
2018-03-08T03:06:04.018Z,4.50
2018-03-08T03:07:03.975Z,4.48
2018-03-08T03:08:03.941Z,4.46
2018-03-08T03:09:04.017Z,4.44
2018-03-08T03:10:03.947Z,4.41
2018-03-08T03:11:03.949Z,4.43
2018-03-08T03:12:04.022Z,4.43
2018-03-08T03:13:04.034Z,4.43
2018-03-08T03:14:03.948Z,4.43
2018-03-08T03:15:03.919Z,4.43
2018-03-08T03:16:03.951Z,4.44
2018-03-08T03:17:03.917Z,4.46
2018-03-08T03:18:04.045Z,4.47
2018-03-08T03:19:04.016Z,4.51
2018-03-08T03:20:04.051Z,4.59
2018-03-08T03:21:04.021Z,4.59
2018-03-08T03:22:04.044Z,4.59
2018-03-08T03:23:04.017Z,4.57
2018-03-08T03:24:03.983Z,4.55
2018-03-08T03:25:03.952Z,4.54
2018-03-08T03:26:03.952Z,4.54
2018-03-08T03:27:04.026Z,4.54
2018-03-08T03:28:04.029Z,4.52
2018-03-08T03:29:04.030Z,4.54
2018-03-08T03:30:03.957Z,4.54
2018-03-08T03:31:04.030Z,4.51
2018-03-08T03:32:03.954Z,4.50
2018-03-08T03:33:04.048Z,4.48
2018-03-08T03:34:03.956Z,4.47
2018-03-08T03:35:03.931Z,4.47
2018-03-08T03:36:03.901Z,4.48
2018-03-08T03:37:03.945Z,4.51
2018-03-08T03:38:04.020Z,4.54
2018-03-08T03:39:04.019Z,4.54
2018-03-08T03:40:04.029Z,4.54
2018-03-08T03:41:03.956Z,4.54
2018-03-08T03:42:04.020Z,4.52
2018-03-08T03:43:03.962Z,4.50
2018-03-08T03:44:04.018Z,4.48
2018-03-08T03:45:03.978Z,4.46
2018-03-08T03:46:03.932Z,4.43
2018-03-08T03:47:04.007Z,4.41
2018-03-08T03:48:04.068Z,4.41
2018-03-08T03:49:03.936Z,4.41
2018-03-08T03:50:04.057Z,4.41
2018-03-08T03:51:03.994Z,4.41
2018-03-08T03:52:04.039Z,4.44
2018-03-08T03:53:04.031Z,4.46
2018-03-08T03:54:04.075Z,4.48
2018-03-08T03:55:04.045Z,4.50
2018-03-08T03:56:03.993Z,4.48
2018-03-08T03:57:04.043Z,4.47
2018-03-08T03:58:03.975Z,4.46
2018-03-08T03:59:03.972Z,4.44
2018-03-08T04:00:04.046Z,4.40
2018-03-08T04:01:04.046Z,4.40
2018-03-08T04:02:04.034Z,4.39
2018-03-08T04:03:03.973Z,4.36
2018-03-08T04:04:04.055Z,4.36
2018-03-08T04:05:04.018Z,4.36
2018-03-08T04:06:03.946Z,4.35
2018-03-08T04:07:04.010Z,4.36
2018-03-08T04:08:03.932Z,4.35
2018-03-08T04:09:03.949Z,4.37
2018-03-08T04:10:03.986Z,4.37
2018-03-08T04:11:04.084Z,4.40
2018-03-08T04:12:04.074Z,4.41
2018-03-08T04:13:04.047Z,4.43
2018-03-08T04:14:04.081Z,4.46
2018-03-08T04:15:03.983Z,4.46
2018-03-08T04:16:03.926Z,4.46
2018-03-08T04:17:03.945Z,4.47
2018-03-08T04:18:03.954Z,4.48
2018-03-08T04:19:03.958Z,4.47
2018-03-08T04:20:03.986Z,4.47
2018-03-08T04:21:03.920Z,4.47
2018-03-08T04:22:04.037Z,4.46
2018-03-08T04:23:03.956Z,4.47
2018-03-08T04:24:04.042Z,4.48
2018-03-08T04:25:04.026Z,4.47
2018-03-08T04:26:04.032Z,4.46
2018-03-08T04:27:04.082Z,4.46
2018-03-08T04:28:04.039Z,4.47
2018-03-08T04:29:04.057Z,4.46
2018-03-08T04:30:04.084Z,4.46
2018-03-08T04:31:04.096Z,4.46
2018-03-08T04:32:04.039Z,4.44
2018-03-08T04:33:03.986Z,4.43
2018-03-08T04:34:03.978Z,4.44
2018-03-08T04:35:04.065Z,4.46
2018-03-08T04:36:04.030Z,4.50
2018-03-08T04:37:04.070Z,4.51
2018-03-08T04:38:03.996Z,4.51
2018-03-08T04:39:04.074Z,4.51
2018-03-08T04:40:04.070Z,4.48
2018-03-08T04:41:04.074Z,4.50
2018-03-08T04:42:04.072Z,4.50
2018-03-08T04:43:04.003Z,4.48
2018-03-08T04:44:04.000Z,4.47
2018-03-08T04:45:04.077Z,4.46
2018-03-08T04:46:04.073Z,4.47
2018-03-08T04:47:04.079Z,4.47
2018-03-08T04:48:04.076Z,4.47
2018-03-08T04:49:04.001Z,4.46
2018-03-08T04:50:04.077Z,4.48
2018-03-08T04:51:04.007Z,4.51
2018-03-08T04:52:04.005Z,4.51
2018-03-08T04:53:04.002Z,4.51
2018-03-08T04:54:04.007Z,4.52
2018-03-08T04:55:04.005Z,4.55
2018-03-08T04:56:03.962Z,4.57
2018-03-08T04:57:04.019Z,4.57
2018-03-08T04:58:04.079Z,4.60
2018-03-08T04:59:04.011Z,4.60
2018-03-08T05:00:04.081Z,4.60
2018-03-08T05:01:04.083Z,4.57
2018-03-08T05:02:04.009Z,4.57
2018-03-08T05:03:04.087Z,4.57
2018-03-08T05:04:04.086Z,4.55
2018-03-08T05:05:04.056Z,4.57
2018-03-08T05:06:04.048Z,4.54
2018-03-08T05:07:04.116Z,4.51
2018-03-08T05:08:04.108Z,4.51
2018-03-08T05:09:04.117Z,4.46
2018-03-08T05:10:04.121Z,4.39
2018-03-08T05:11:04.046Z,4.37
2018-03-08T05:12:04.093Z,4.35
2018-03-08T05:13:04.081Z,4.29
2018-03-08T05:14:04.091Z,4.26
2018-03-08T05:15:03.989Z,4.21
2018-03-08T05:16:04.094Z,4.15
2018-03-08T05:17:04.097Z,4.14
2018-03-08T05:18:04.018Z,4.14
2018-03-08T05:19:04.021Z,4.14
2018-03-08T05:20:04.022Z,4.14
2018-03-08T05:21:04.096Z,4.10
2018-03-08T05:22:04.025Z,4.08
2018-03-08T05:23:04.095Z,4.12
2018-03-08T05:24:04.025Z,4.12
2018-03-08T05:25:04.127Z,4.11
2018-03-08T05:26:03.999Z,4.08
2018-03-08T05:27:04.094Z,4.03
2018-03-08T05:28:04.156Z,3.96
2018-03-08T05:29:04.092Z,3.93
2018-03-08T05:30:04.097Z,3.92
2018-03-08T05:31:04.091Z,3.96
2018-03-08T05:32:04.035Z,3.99
2018-03-08T05:33:04.001Z,3.97
2018-03-08T05:34:04.038Z,3.95
2018-03-08T05:35:04.017Z,3.90
2018-03-08T05:36:04.005Z,3.84
2018-03-08T05:37:04.022Z,3.78
2018-03-08T05:38:04.016Z,3.73
2018-03-08T05:39:04.039Z,3.72
2018-03-08T05:40:04.177Z,3.76
2018-03-08T05:41:04.053Z,3.77
2018-03-08T05:42:04.026Z,3.76
2018-03-08T05:43:04.098Z,3.76
2018-03-08T05:44:04.098Z,3.73
2018-03-08T05:45:04.146Z,3.72
2018-03-08T05:46:04.010Z,3.68
2018-03-08T05:47:04.034Z,3.59
2018-03-08T05:48:04.085Z,3.54
2018-03-08T05:49:04.086Z,3.47
2018-03-08T05:50:04.072Z,3.40
2018-03-08T05:51:04.087Z,3.35
2018-03-08T05:52:04.028Z,3.35
2018-03-08T05:53:04.128Z,3.42
2018-03-08T05:54:04.071Z,3.46
2018-03-08T05:55:03.991Z,3.44
2018-03-08T05:56:04.006Z,3.42
2018-03-08T05:57:04.099Z,3.39
2018-03-08T05:58:03.974Z,3.36
2018-03-08T05:59:04.105Z,3.42
2018-03-08T06:00:04.093Z,3.43
2018-03-08T06:01:04.055Z,3.42
2018-03-08T06:02:04.011Z,3.42
2018-03-08T06:03:04.019Z,3.43
2018-03-08T06:04:04.072Z,3.46
2018-03-08T06:05:04.118Z,3.42
2018-03-08T06:06:04.081Z,3.36
2018-03-08T06:07:04.160Z,3.31
2018-03-08T06:08:04.091Z,3.31
2018-03-08T06:09:04.159Z,3.25
2018-03-08T06:10:04.044Z,3.24
2018-03-08T06:11:04.117Z,3.25
2018-03-08T06:12:04.026Z,3.26
2018-03-08T06:13:04.047Z,3.25
2018-03-08T06:14:04.122Z,3.28
2018-03-08T06:15:04.056Z,3.31
2018-03-08T06:16:04.125Z,3.44
2018-03-08T06:17:04.141Z,3.62
2018-03-08T06:18:04.130Z,3.76
2018-03-08T06:19:04.131Z,3.81
2018-03-08T06:20:04.115Z,3.78
2018-03-08T06:21:04.132Z,3.81
2018-03-08T06:22:04.132Z,3.87
2018-03-08T06:23:04.123Z,4.00
2018-03-08T06:24:04.059Z,4.04
2018-03-08T06:25:04.130Z,4.11
2018-03-08T06:26:04.132Z,4.12
2018-03-08T06:27:04.092Z,4.15
2018-03-08T06:28:04.090Z,4.17
2018-03-08T06:29:04.133Z,4.15
2018-03-08T06:30:04.061Z,4.24
2018-03-08T06:31:04.061Z,4.26
2018-03-08T06:32:04.135Z,4.29
2018-03-08T06:33:04.139Z,4.29
2018-03-08T06:34:04.067Z,4.28
2018-03-08T06:35:04.155Z,4.28
2018-03-08T06:36:04.068Z,4.26
2018-03-08T06:37:04.066Z,4.24
2018-03-08T06:38:04.141Z,4.24
2018-03-08T06:39:04.094Z,4.22
2018-03-08T06:40:04.139Z,4.24
2018-03-08T06:41:04.071Z,4.25
2018-03-08T06:42:04.142Z,4.29
2018-03-08T06:43:04.074Z,4.39
2018-03-08T06:44:04.096Z,4.47
2018-03-08T06:45:04.081Z,4.52
2018-03-08T06:46:04.164Z,4.55
2018-03-08T06:47:04.139Z,4.59
2018-03-08T06:48:04.140Z,4.62
2018-03-08T06:49:04.171Z,4.67
2018-03-08T06:50:04.162Z,4.67
2018-03-08T06:51:04.136Z,4.69
2018-03-08T06:52:04.098Z,4.67
2018-03-08T06:53:04.185Z,4.69
2018-03-08T06:54:04.105Z,4.66
2018-03-08T06:55:04.053Z,4.66
2018-03-08T06:56:04.147Z,4.67
2018-03-08T06:57:04.048Z,4.71
2018-03-08T06:58:04.152Z,4.71
2018-03-08T06:59:04.146Z,4.77
2018-03-08T07:00:04.112Z,4.87
2018-03-08T07:01:04.068Z,4.95
2018-03-08T07:02:04.102Z,5.00
2018-03-08T07:03:04.190Z,5.07
2018-03-08T07:04:04.087Z,5.07
2018-03-08T07:05:04.095Z,5.09
2018-03-08T07:06:04.086Z,5.07
2018-03-08T07:07:04.155Z,5.09
2018-03-08T07:08:04.099Z,5.10
2018-03-08T07:09:04.091Z,5.09
2018-03-08T07:10:04.157Z,5.09
2018-03-08T07:11:04.116Z,5.07
2018-03-08T07:12:04.223Z,5.11
2018-03-08T07:13:04.158Z,5.11
2018-03-08T07:14:04.210Z,5.15
2018-03-08T07:15:04.196Z,5.14
2018-03-08T07:16:04.070Z,5.15
2018-03-08T07:17:04.169Z,5.18
2018-03-08T07:18:04.137Z,5.18
2018-03-08T07:19:04.131Z,5.21
2018-03-08T07:20:04.209Z,5.23
2018-03-08T07:21:04.161Z,5.25
2018-03-08T07:22:04.186Z,5.27
2018-03-08T07:23:04.201Z,5.27
2018-03-08T07:24:04.141Z,5.30
2018-03-08T07:25:04.097Z,5.33
2018-03-08T07:26:04.133Z,5.34
2018-03-08T07:27:04.171Z,5.35
2018-03-08T07:28:04.167Z,5.37
2018-03-08T07:29:04.228Z,5.37
2018-03-08T07:30:04.172Z,5.40
2018-03-08T07:31:04.170Z,5.41
2018-03-08T07:32:04.100Z,5.42
2018-03-08T07:33:04.104Z,5.42
2018-03-08T07:34:04.169Z,5.42
2018-03-08T07:35:04.129Z,5.44
2018-03-08T07:36:04.212Z,5.44
2018-03-08T07:37:04.132Z,5.44
2018-03-08T07:38:04.142Z,5.46
2018-03-08T07:39:04.144Z,5.49
2018-03-08T07:40:04.073Z,5.51
2018-03-08T07:41:04.208Z,5.52
2018-03-08T07:42:04.074Z,5.57
2018-03-08T07:43:04.175Z,5.63
2018-03-08T07:44:04.173Z,5.66
2018-03-08T07:45:04.118Z,5.70
2018-03-08T07:46:04.178Z,5.70
2018-03-08T07:47:04.181Z,5.71
2018-03-08T07:48:04.177Z,5.68
2018-03-08T07:49:04.133Z,5.64
2018-03-08T07:50:04.113Z,5.62
2018-03-08T07:51:04.117Z,5.56
2018-03-08T07:52:04.144Z,5.53
2018-03-08T07:53:04.183Z,5.53
2018-03-08T07:54:04.114Z,5.55
2018-03-08T07:55:04.116Z,5.62
2018-03-08T07:56:04.187Z,5.67
2018-03-08T07:57:04.401Z,5.77
2018-03-08T07:58:04.187Z,5.92
2018-03-08T07:59:04.115Z,6.04
2018-03-08T08:00:04.186Z,6.18
2018-03-08T08:01:04.119Z,6.29
2018-03-08T08:02:04.193Z,6.43
2018-03-08T08:03:04.116Z,6.56
2018-03-08T08:04:04.185Z,6.61
2018-03-08T08:05:04.122Z,6.67
2018-03-08T08:06:04.185Z,6.74
2018-03-08T08:07:04.194Z,6.81
2018-03-08T08:08:04.187Z,6.89
2018-03-08T08:09:04.126Z,6.93
2018-03-08T08:10:04.188Z,7.01
2018-03-08T08:11:04.126Z,7.12
2018-03-08T08:12:04.229Z,7.19
2018-03-08T08:13:04.122Z,7.23
2018-03-08T08:14:04.090Z,7.27
2018-03-08T08:15:04.166Z,7.31
2018-03-08T08:16:04.196Z,7.34
2018-03-08T08:17:04.121Z,7.30
2018-03-08T08:18:04.150Z,7.34
2018-03-08T08:19:04.165Z,7.38
2018-03-08T08:20:04.196Z,7.44
2018-03-08T08:21:04.258Z,7.52
2018-03-08T08:22:04.161Z,7.59
2018-03-08T08:23:04.095Z,7.59
2018-03-08T08:24:04.224Z,7.56
2018-03-08T08:25:04.132Z,7.64
2018-03-08T08:26:04.137Z,7.79
2018-03-08T08:27:04.219Z,7.76
2018-03-08T08:28:04.199Z,7.81
2018-03-08T08:29:04.130Z,7.95
2018-03-08T08:30:04.133Z,7.95
2018-03-08T08:31:04.131Z,7.99
2018-03-08T08:32:04.139Z,7.95
2018-03-08T08:33:04.205Z,8.01
2018-03-08T08:34:04.202Z,8.02
2018-03-08T08:35:04.164Z,7.92
2018-03-08T08:36:04.225Z,7.97
2018-03-08T08:37:04.236Z,7.98
2018-03-08T08:38:04.224Z,7.89
2018-03-08T08:39:04.239Z,7.90
2018-03-08T08:40:04.206Z,7.87
2018-03-08T08:41:04.208Z,7.87
2018-03-08T08:42:04.165Z,7.92
2018-03-08T08:43:04.209Z,7.89
2018-03-08T08:44:04.209Z,7.86
2018-03-08T08:45:04.144Z,8.02
2018-03-08T08:46:04.142Z,8.02
2018-03-08T08:47:04.145Z,8.19
2018-03-08T08:48:04.218Z,8.35
2018-03-08T08:49:04.142Z,8.31
2018-03-08T08:50:04.225Z,8.46
2018-03-08T08:51:04.219Z,8.58
2018-03-08T08:52:04.146Z,8.60
2018-03-08T08:53:04.216Z,8.61
2018-03-08T08:54:04.223Z,8.64
2018-03-08T08:55:04.214Z,8.62
2018-03-08T08:56:04.216Z,8.72
2018-03-08T08:57:04.214Z,8.69
2018-03-08T08:58:04.138Z,8.57
2018-03-08T08:59:04.145Z,8.61
2018-03-08T09:00:04.219Z,8.68
2018-03-08T09:01:04.142Z,8.75
2018-03-08T09:02:04.251Z,8.86
2018-03-08T09:03:04.158Z,8.91
2018-03-08T09:04:04.222Z,8.80
2018-03-08T09:05:04.250Z,8.78
2018-03-08T09:06:04.160Z,8.90
2018-03-08T09:07:04.225Z,8.98
2018-03-08T09:08:04.157Z,9.04
2018-03-08T09:09:04.232Z,9.15
2018-03-08T09:10:04.159Z,9.15
2018-03-08T09:11:04.237Z,9.11
2018-03-08T09:12:04.185Z,9.16
2018-03-08T09:13:04.233Z,9.31
2018-03-08T09:14:04.160Z,9.04
2018-03-08T09:15:04.233Z,9.09
2018-03-08T09:16:04.159Z,9.08
2018-03-08T09:17:04.163Z,9.01
2018-03-08T09:18:04.231Z,9.02
2018-03-08T09:19:04.164Z,9.04
2018-03-08T09:20:04.236Z,9.07
2018-03-08T09:21:04.221Z,9.11
2018-03-08T09:22:04.233Z,8.75
2018-03-08T09:23:04.231Z,8.54
2018-03-08T09:24:04.165Z,8.57
2018-03-08T09:25:04.258Z,8.62
2018-03-08T09:26:04.258Z,8.78
2018-03-08T09:27:04.103Z,8.93
2018-03-08T09:28:04.237Z,9.01
2018-03-08T09:29:04.121Z,8.97
2018-03-08T09:30:04.142Z,8.89
2018-03-08T09:31:04.234Z,8.89
2018-03-08T09:32:04.144Z,8.85
2018-03-08T09:33:04.146Z,8.87
2018-03-08T09:34:04.220Z,8.90
2018-03-08T09:35:04.221Z,8.94
2018-03-08T09:36:04.282Z,8.93
2018-03-08T09:37:04.183Z,9.01
2018-03-08T09:38:04.244Z,9.11
2018-03-08T09:39:04.276Z,9.25
2018-03-08T09:40:04.242Z,9.15
2018-03-08T09:41:04.218Z,9.20
2018-03-08T09:42:04.227Z,9.32
2018-03-08T09:43:04.202Z,9.19
2018-03-08T09:44:04.251Z,9.02
2018-03-08T09:45:04.277Z,9.11
2018-03-08T09:46:04.247Z,9.13
2018-03-08T09:47:04.195Z,9.04
2018-03-08T09:48:04.238Z,8.78
2018-03-08T09:49:04.246Z,8.65
2018-03-08T09:50:04.151Z,8.49
2018-03-08T09:51:04.231Z,8.47
2018-03-08T09:52:04.130Z,8.71
2018-03-08T09:53:04.254Z,9.01
2018-03-08T09:54:04.132Z,9.04
2018-03-08T09:55:04.251Z,8.86
2018-03-08T09:56:04.257Z,8.83
2018-03-08T09:57:04.198Z,9.02
2018-03-08T09:58:04.255Z,9.27
2018-03-08T09:59:04.316Z,9.44
2018-03-08T10:00:04.183Z,9.38
2018-03-08T10:01:04.191Z,9.34
2018-03-08T10:02:04.152Z,9.53
2018-03-08T10:03:04.201Z,9.61
2018-03-08T10:04:04.194Z,9.68
2018-03-08T10:05:04.196Z,9.65
2018-03-08T10:06:04.251Z,9.68
2018-03-08T10:07:04.257Z,9.93
2018-03-08T10:08:04.234Z,9.97
2018-03-08T10:09:04.168Z,10.00
2018-03-08T10:10:04.295Z,9.89
2018-03-08T10:11:04.288Z,10.05
2018-03-08T10:12:04.229Z,10.14
2018-03-08T10:13:04.181Z,10.18
2018-03-08T10:14:04.319Z,10.08
2018-03-08T10:15:04.170Z,10.09
2018-03-08T10:16:04.152Z,9.93
2018-03-08T10:17:04.197Z,9.80
2018-03-08T10:18:04.267Z,9.82
2018-03-08T10:19:04.225Z,9.54
2018-03-08T10:20:04.280Z,9.49
2018-03-08T10:21:04.203Z,9.49
2018-03-08T10:22:04.262Z,9.50
2018-03-08T10:23:04.217Z,9.57
2018-03-08T10:24:04.266Z,9.75
2018-03-08T10:25:04.207Z,9.87
2018-03-08T10:26:04.221Z,10.01
2018-03-08T10:27:04.247Z,10.06
2018-03-08T10:28:04.293Z,10.21
2018-03-08T10:29:04.298Z,10.41
2018-03-08T10:30:04.308Z,10.56
2018-03-08T10:31:04.252Z,10.39
2018-03-08T10:32:04.249Z,10.27
2018-03-08T10:33:04.275Z,10.08
2018-03-08T10:34:04.315Z,10.13
2018-03-08T10:35:04.346Z,10.09
2018-03-08T10:36:04.235Z,9.97
2018-03-08T10:37:04.282Z,9.90
2018-03-08T10:38:04.248Z,10.04
2018-03-08T10:40:04.280Z,10.24
2018-03-08T10:41:04.328Z,10.27
2018-03-08T10:42:04.311Z,10.28
2018-03-08T10:43:04.180Z,10.45
2018-03-08T10:44:04.262Z,10.43
2018-03-08T10:45:04.286Z,10.50
2018-03-08T10:46:04.190Z,10.64
2018-03-08T10:47:04.300Z,10.56
2018-03-08T10:48:04.189Z,10.42
2018-03-08T10:49:04.264Z,10.35
2018-03-08T10:50:04.187Z,10.46
2018-03-08T10:51:04.258Z,10.64
2018-03-08T10:52:04.322Z,10.71
2018-03-08T10:53:04.315Z,10.72
2018-03-08T10:54:04.188Z,10.23
2018-03-08T10:55:04.324Z,10.18
2018-03-08T10:56:04.222Z,10.23
2018-03-08T10:57:04.221Z,10.32
2018-03-08T10:58:04.218Z,10.42
2018-03-08T10:59:04.228Z,10.49
2018-03-08T11:00:04.227Z,10.52
2018-03-08T11:01:04.229Z,10.56
2018-03-08T11:02:04.297Z,10.58
2018-03-08T11:03:04.304Z,10.68
2018-03-08T11:04:04.260Z,10.81
2018-03-08T11:05:04.292Z,10.88
2018-03-08T11:06:04.321Z,10.87
2018-03-08T11:07:04.382Z,10.86
2018-03-08T11:08:04.300Z,10.50
2018-03-08T11:09:04.277Z,10.43
2018-03-08T11:10:04.334Z,10.32
2018-03-08T11:11:04.209Z,10.53
2018-03-08T11:12:04.297Z,10.63
2018-03-08T11:13:04.273Z,10.72
2018-03-08T11:14:04.203Z,10.68
2018-03-08T11:15:04.321Z,10.80
2018-03-08T11:16:04.256Z,10.75
2018-03-08T11:17:04.210Z,10.69
2018-03-08T11:18:04.239Z,10.60
2018-03-08T11:19:04.300Z,10.45
2018-03-08T11:20:04.375Z,10.39
2018-03-08T11:21:04.299Z,10.25
2018-03-08T11:22:04.297Z,10.24
2018-03-08T11:23:04.271Z,10.23
2018-03-08T11:24:04.270Z,10.38
2018-03-08T11:25:04.307Z,10.57
2018-03-08T11:26:04.243Z,10.50
2018-03-08T11:27:04.313Z,10.49
2018-03-08T11:28:04.243Z,10.47
2018-03-08T11:29:04.313Z,10.30
2018-03-08T11:30:04.309Z,10.31
2018-03-08T11:31:04.246Z,10.16
2018-03-08T11:32:04.312Z,10.14
2018-03-08T11:33:04.245Z,10.08
2018-03-08T11:34:04.311Z,9.94
2018-03-08T11:35:04.250Z,9.97
2018-03-08T11:36:08.739Z,10.09
2018-03-08T11:37:04.246Z,10.27
2018-03-08T11:38:04.321Z,10.47
2018-03-08T11:39:05.284Z,10.75
2018-03-08T11:40:04.314Z,10.91
2018-03-08T11:41:04.248Z,10.88
2018-03-08T11:42:04.202Z,10.86
2018-03-08T11:43:04.249Z,11.16
2018-03-08T11:44:04.320Z,11.53
2018-03-08T11:45:04.319Z,11.97
2018-03-08T11:46:04.318Z,12.33
2018-03-08T11:47:04.306Z,12.53
2018-03-08T11:48:04.308Z,12.53
2018-03-08T11:49:04.251Z,11.97
2018-03-08T11:50:04.228Z,11.89
2018-03-08T11:51:04.206Z,11.53
2018-03-08T11:52:04.211Z,11.42
2018-03-08T11:53:04.253Z,11.27
2018-03-08T11:54:04.209Z,11.14
2018-03-08T11:55:04.312Z,11.20
2018-03-08T11:56:04.316Z,11.39
2018-03-08T11:57:04.279Z,11.49
2018-03-08T11:58:04.184Z,11.61
2018-03-08T11:59:04.280Z,11.62
2018-03-08T12:00:04.249Z,11.67
2018-03-08T12:01:04.202Z,11.76
2018-03-08T12:02:04.276Z,11.80
2018-03-08T12:03:04.280Z,11.89
2018-03-08T12:04:04.191Z,11.82
2018-03-08T12:05:04.293Z,11.94
2018-03-08T12:06:04.251Z,11.86
2018-03-08T12:07:04.353Z,11.57
2018-03-08T12:08:04.369Z,11.67
2018-03-08T12:09:04.312Z,11.71
2018-03-08T12:10:04.259Z,11.50
2018-03-08T12:11:04.330Z,11.68
2018-03-08T12:12:04.334Z,11.64
2018-03-08T12:13:04.359Z,11.58
2018-03-08T12:14:04.333Z,11.49
2018-03-08T12:15:04.379Z,11.51
2018-03-08T12:16:04.269Z,11.38
2018-03-08T12:17:04.381Z,11.33
2018-03-08T12:18:04.275Z,11.17
2018-03-08T12:19:04.271Z,10.98
2018-03-08T12:20:04.343Z,10.88
2018-03-08T12:21:04.272Z,10.74
2018-03-08T12:22:04.344Z,10.64
2018-03-08T12:23:04.276Z,10.57
2018-03-08T12:24:04.341Z,10.53
2018-03-08T12:25:04.276Z,10.35
2018-03-08T12:26:04.275Z,10.24
2018-03-08T12:27:04.343Z,10.20
2018-03-08T12:28:04.350Z,10.21
2018-03-08T12:29:04.349Z,10.28
2018-03-08T12:30:04.279Z,10.50
2018-03-08T12:31:04.347Z,10.68
2018-03-08T12:32:04.279Z,10.87
2018-03-08T12:33:04.349Z,10.67
2018-03-08T12:34:04.281Z,10.52
2018-03-08T12:35:04.354Z,10.39
2018-03-08T12:37:04.331Z,10.38
2018-03-08T12:38:04.250Z,10.41
2018-03-08T12:39:04.384Z,10.38
2018-03-08T12:40:04.387Z,10.35
2018-03-08T12:41:04.356Z,10.43
2018-03-08T12:42:04.316Z,10.49
2018-03-08T12:43:04.384Z,10.54
2018-03-08T12:44:04.347Z,10.56
2018-03-08T12:45:04.391Z,10.41
2018-03-08T12:46:04.264Z,10.31
2018-03-08T12:47:04.263Z,10.36
2018-03-08T12:48:04.336Z,10.43
2018-03-08T12:49:04.400Z,10.41
2018-03-08T12:50:04.375Z,10.36
2018-03-08T12:51:04.376Z,10.30
2018-03-08T12:52:04.379Z,10.02
2018-03-08T12:53:04.319Z,10.02
2018-03-08T12:54:04.388Z,10.00
2018-03-08T12:55:04.398Z,10.00
2018-03-08T12:56:04.338Z,9.94
2018-03-08T12:57:04.326Z,9.94
2018-03-08T12:58:04.362Z,9.82
2018-03-08T12:59:04.296Z,9.73
2018-03-08T13:00:04.297Z,9.75
2018-03-08T13:01:04.294Z,9.79
2018-03-08T13:02:04.388Z,9.87
2018-03-08T13:03:04.293Z,9.91
2018-03-08T13:04:04.367Z,9.91
2018-03-08T13:05:04.298Z,9.94
2018-03-08T13:07:04.374Z,9.93
2018-03-08T13:08:04.371Z,10.01
2018-03-08T13:09:04.300Z,10.08
2018-03-08T13:10:04.301Z,10.06
2018-03-08T13:11:04.370Z,9.98
2018-03-08T13:12:04.370Z,9.95
2018-03-08T13:13:04.373Z,10.02
2018-03-08T13:14:04.308Z,10.11
2018-03-08T13:15:04.375Z,10.18
2018-03-08T13:16:04.277Z,10.30